sensor_id;sensor_type;location;lat;lon;timestamp;P1;durP1;ratioP1;P2;durP2;ratioP2
23472;SDS011;11909;52.516;13.564;2022-12-07T00:01:04;17.30;;;10.90;;
23472;SDS011;11909;52.516;13.564;2022-12-07T00:03:32;16.17;;;10.27;;
23472;SDS011;11909;52.516;13.564;2022-12-07T00:06:00;17.25;;;9.77;;
23472;SDS011;11909;52.516;13.564;2022-12-07T00:08:29;16.42;;;10.10;;
23472;SDS011;11909;52.516;13.564;2022-12-07T00:11:00;15.25;;;9.65;;
23472;SDS011;11909;52.516;13.564;2022-12-07T00:13:30;18.88;;;10.40;;
23472;SDS011;11909;52.516;13.564;2022-12-07T00:16:00;15.45;;;9.68;;
23472;SDS011;11909;52.516;13.564;2022-12-07T00:18:29;13.55;;;8.68;;
23472;SDS011;11909;52.516;13.564;2022-12-07T00:21:00;18.30;;;9.82;;
23472;SDS011;11909;52.516;13.564;2022-12-07T00:23:28;16.90;;;9.95;;
23472;SDS011;11909;52.516;13.564;2022-12-07T00:26:02;15.73;;;10.15;;
23472;SDS011;11909;52.516;13.564;2022-12-07T00:28:32;17.00;;;10.40;;
23472;SDS011;11909;52.516;13.564;2022-12-07T00:31:04;17.77;;;10.52;;
23472;SDS011;11909;52.516;13.564;2022-12-07T00:33:33;15.05;;;9.70;;
23472;SDS011;11909;52.516;13.564;2022-12-07T00:36:01;17.17;;;9.93;;
23472;SDS011;11909;52.516;13.564;2022-12-07T00:38:31;15.73;;;10.07;;
23472;SDS011;11909;52.516;13.564;2022-12-07T00:41:00;15.80;;;10.20;;
23472;SDS011;11909;52.516;13.564;2022-12-07T00:43:29;13.20;;;8.93;;
23472;SDS011;11909;52.516;13.564;2022-12-07T00:45:59;13.30;;;9.05;;
23472;SDS011;11909;52.516;13.564;2022-12-07T00:48:27;13.73;;;9.25;;
23472;SDS011;11909;52.516;13.564;2022-12-07T00:50:54;12.77;;;8.70;;
23472;SDS011;11909;52.516;13.564;2022-12-07T00:53:23;14.13;;;8.75;;
23472;SDS011;11909;52.516;13.564;2022-12-07T00:55:51;12.82;;;8.75;;
23472;SDS011;11909;52.516;13.564;2022-12-07T00:58:19;12.40;;;8.70;;
23472;SDS011;11909;52.516;13.564;2022-12-07T01:00:48;12.57;;;8.85;;
23472;SDS011;11909;52.516;13.564;2022-12-07T01:03:16;15.00;;;8.38;;
23472;SDS011;11909;52.516;13.564;2022-12-07T01:05:50;11.07;;;7.85;;
23472;SDS011;11909;52.516;13.564;2022-12-07T01:08:19;12.52;;;8.70;;
23472;SDS011;11909;52.516;13.564;2022-12-07T01:10:47;15.60;;;8.52;;
23472;SDS011;11909;52.516;13.564;2022-12-07T01:13:16;13.02;;;8.80;;
23472;SDS011;11909;52.516;13.564;2022-12-07T01:15:44;11.48;;;8.38;;
23472;SDS011;11909;52.516;13.564;2022-12-07T01:18:13;11.70;;;8.45;;
23472;SDS011;11909;52.516;13.564;2022-12-07T01:20:41;11.73;;;8.00;;
23472;SDS011;11909;52.516;13.564;2022-12-07T01:23:08;12.10;;;8.30;;
23472;SDS011;11909;52.516;13.564;2022-12-07T01:25:36;11.23;;;8.32;;
23472;SDS011;11909;52.516;13.564;2022-12-07T01:28:04;12.02;;;8.30;;
23472;SDS011;11909;52.516;13.564;2022-12-07T01:30:31;11.02;;;8.27;;
23472;SDS011;11909;52.516;13.564;2022-12-07T01:32:59;12.73;;;8.88;;
23472;SDS011;11909;52.516;13.564;2022-12-07T01:35:28;11.95;;;8.20;;
23472;SDS011;11909;52.516;13.564;2022-12-07T01:37:56;12.70;;;8.35;;
23472;SDS011;11909;52.516;13.564;2022-12-07T01:40:23;11.32;;;8.18;;
23472;SDS011;11909;52.516;13.564;2022-12-07T01:42:51;12.85;;;8.70;;
23472;SDS011;11909;52.516;13.564;2022-12-07T01:45:34;13.55;;;8.88;;
23472;SDS011;11909;52.516;13.564;2022-12-07T01:48:05;11.07;;;8.45;;
23472;SDS011;11909;52.516;13.564;2022-12-07T01:50:36;14.20;;;8.83;;
23472;SDS011;11909;52.516;13.564;2022-12-07T01:53:06;13.65;;;8.50;;
23472;SDS011;11909;52.516;13.564;2022-12-07T01:55:38;12.80;;;9.25;;
23472;SDS011;11909;52.516;13.564;2022-12-07T01:58:09;14.07;;;8.35;;
23472;SDS011;11909;52.516;13.564;2022-12-07T02:00:38;12.85;;;8.35;;
23472;SDS011;11909;52.516;13.564;2022-12-07T02:03:07;12.35;;;7.78;;
23472;SDS011;11909;52.516;13.564;2022-12-07T02:05:40;13.00;;;8.68;;
23472;SDS011;11909;52.516;13.564;2022-12-07T02:08:08;11.82;;;7.82;;
23472;SDS011;11909;52.516;13.564;2022-12-07T02:10:38;11.82;;;7.80;;
23472;SDS011;11909;52.516;13.564;2022-12-07T02:13:06;11.00;;;6.60;;
23472;SDS011;11909;52.516;13.564;2022-12-07T02:15:46;12.23;;;6.85;;
23472;SDS011;11909;52.516;13.564;2022-12-07T02:18:25;9.40;;;6.75;;
23472;SDS011;11909;52.516;13.564;2022-12-07T02:21:07;9.15;;;6.40;;
23472;SDS011;11909;52.516;13.564;2022-12-07T02:23:40;13.00;;;6.72;;
23472;SDS011;11909;52.516;13.564;2022-12-07T02:26:37;10.32;;;6.93;;
23472;SDS011;11909;52.516;13.564;2022-12-07T02:29:25;11.07;;;6.72;;
23472;SDS011;11909;52.516;13.564;2022-12-07T02:31:56;11.50;;;7.30;;
23472;SDS011;11909;52.516;13.564;2022-12-07T02:34:34;9.90;;;7.07;;
23472;SDS011;11909;52.516;13.564;2022-12-07T02:37:10;8.82;;;6.55;;
23472;SDS011;11909;52.516;13.564;2022-12-07T02:39:47;9.30;;;5.78;;
23472;SDS011;11909;52.516;13.564;2022-12-07T02:42:19;8.40;;;6.20;;
23472;SDS011;11909;52.516;13.564;2022-12-07T02:44:54;11.00;;;6.22;;
23472;SDS011;11909;52.516;13.564;2022-12-07T02:47:22;6.97;;;5.10;;
23472;SDS011;11909;52.516;13.564;2022-12-07T02:49:52;9.10;;;6.00;;
23472;SDS011;11909;52.516;13.564;2022-12-07T02:52:19;9.10;;;6.18;;
23472;SDS011;11909;52.516;13.564;2022-12-07T02:54:47;7.82;;;5.88;;
23472;SDS011;11909;52.516;13.564;2022-12-07T03:00:11;8.13;;;6.05;;
23472;SDS011;11909;52.516;13.564;2022-12-07T03:02:45;9.30;;;6.32;;
23472;SDS011;11909;52.516;13.564;2022-12-07T03:05:26;8.57;;;6.35;;
23472;SDS011;11909;52.516;13.564;2022-12-07T03:08:06;7.55;;;5.82;;
23472;SDS011;11909;52.516;13.564;2022-12-07T03:10:41;8.93;;;6.22;;
23472;SDS011;11909;52.516;13.564;2022-12-07T03:13:19;9.65;;;6.72;;
23472;SDS011;11909;52.516;13.564;2022-12-07T03:15:55;9.18;;;6.22;;
23472;SDS011;11909;52.516;13.564;2022-12-07T03:18:29;10.00;;;6.75;;
23472;SDS011;11909;52.516;13.564;2022-12-07T03:21:02;9.43;;;7.13;;
23472;SDS011;11909;52.516;13.564;2022-12-07T03:23:35;10.52;;;7.10;;
23472;SDS011;11909;52.516;13.564;2022-12-07T03:26:05;10.25;;;6.78;;
23472;SDS011;11909;52.516;13.564;2022-12-07T03:28:38;9.90;;;7.13;;
23472;SDS011;11909;52.516;13.564;2022-12-07T03:31:13;11.15;;;7.57;;
23472;SDS011;11909;52.516;13.564;2022-12-07T03:33:48;9.43;;;7.00;;
23472;SDS011;11909;52.516;13.564;2022-12-07T03:36:21;10.38;;;7.30;;
23472;SDS011;11909;52.516;13.564;2022-12-07T03:38:54;11.75;;;6.95;;
23472;SDS011;11909;52.516;13.564;2022-12-07T03:41:30;11.25;;;6.82;;
23472;SDS011;11909;52.516;13.564;2022-12-07T03:44:06;11.55;;;7.15;;
23472;SDS011;11909;52.516;13.564;2022-12-07T03:46:36;9.32;;;6.70;;
23472;SDS011;11909;52.516;13.564;2022-12-07T03:49:11;10.35;;;7.10;;
23472;SDS011;11909;52.516;13.564;2022-12-07T03:51:46;12.15;;;6.78;;
23472;SDS011;11909;52.516;13.564;2022-12-07T03:54:23;9.45;;;7.15;;
23472;SDS011;11909;52.516;13.564;2022-12-07T03:56:53;11.30;;;7.28;;
23472;SDS011;11909;52.516;13.564;2022-12-07T03:59:23;11.50;;;7.30;;
23472;SDS011;11909;52.516;13.564;2022-12-07T04:01:54;13.40;;;7.80;;
23472;SDS011;11909;52.516;13.564;2022-12-07T04:04:23;12.23;;;7.68;;
23472;SDS011;11909;52.516;13.564;2022-12-07T04:06:51;9.13;;;6.80;;
23472;SDS011;11909;52.516;13.564;2022-12-07T04:09:20;12.43;;;8.50;;
23472;SDS011;11909;52.516;13.564;2022-12-07T04:11:48;12.13;;;8.20;;
23472;SDS011;11909;52.516;13.564;2022-12-07T04:14:16;13.02;;;8.07;;
23472;SDS011;11909;52.516;13.564;2022-12-07T04:19:16;12.68;;;8.73;;
23472;SDS011;11909;52.516;13.564;2022-12-07T04:21:45;17.05;;;8.88;;
23472;SDS011;11909;52.516;13.564;2022-12-07T04:24:14;12.27;;;8.48;;
23472;SDS011;11909;52.516;13.564;2022-12-07T04:26:43;13.98;;;9.15;;
23472;SDS011;11909;52.516;13.564;2022-12-07T04:29:11;15.05;;;9.38;;
23472;SDS011;11909;52.516;13.564;2022-12-07T04:31:39;15.48;;;10.13;;
23472;SDS011;11909;52.516;13.564;2022-12-07T04:34:08;15.32;;;9.60;;
23472;SDS011;11909;52.516;13.564;2022-12-07T04:36:37;18.17;;;10.40;;
23472;SDS011;11909;52.516;13.564;2022-12-07T04:39:06;15.38;;;10.18;;
23472;SDS011;11909;52.516;13.564;2022-12-07T04:41:40;17.88;;;10.68;;
23472;SDS011;11909;52.516;13.564;2022-12-07T04:44:07;20.00;;;11.40;;
23472;SDS011;11909;52.516;13.564;2022-12-07T04:46:35;19.55;;;12.20;;
23472;SDS011;11909;52.516;13.564;2022-12-07T04:49:03;17.48;;;11.27;;
23472;SDS011;11909;52.516;13.564;2022-12-07T04:51:31;20.88;;;12.07;;
23472;SDS011;11909;52.516;13.564;2022-12-07T04:54:00;21.90;;;12.73;;
23472;SDS011;11909;52.516;13.564;2022-12-07T04:56:27;22.63;;;13.32;;
23472;SDS011;11909;52.516;13.564;2022-12-07T04:58:55;21.05;;;12.70;;
23472;SDS011;11909;52.516;13.564;2022-12-07T05:01:23;22.50;;;13.48;;
23472;SDS011;11909;52.516;13.564;2022-12-07T05:03:51;22.08;;;13.07;;
23472;SDS011;11909;52.516;13.564;2022-12-07T05:06:19;22.77;;;13.95;;
23472;SDS011;11909;52.516;13.564;2022-12-07T05:08:47;21.55;;;13.57;;
23472;SDS011;11909;52.516;13.564;2022-12-07T05:11:16;22.50;;;13.88;;
23472;SDS011;11909;52.516;13.564;2022-12-07T05:13:58;24.00;;;14.18;;
23472;SDS011;11909;52.516;13.564;2022-12-07T05:16:26;28.55;;;15.45;;
23472;SDS011;11909;52.516;13.564;2022-12-07T05:18:54;27.52;;;16.15;;
23472;SDS011;11909;52.516;13.564;2022-12-07T05:21:22;27.20;;;15.73;;
23472;SDS011;11909;52.516;13.564;2022-12-07T05:23:50;26.77;;;16.10;;
23472;SDS011;11909;52.516;13.564;2022-12-07T05:26:19;26.52;;;15.48;;
23472;SDS011;11909;52.516;13.564;2022-12-07T05:28:49;26.45;;;16.23;;
23472;SDS011;11909;52.516;13.564;2022-12-07T05:31:18;27.35;;;15.60;;
23472;SDS011;11909;52.516;13.564;2022-12-07T05:33:46;26.48;;;15.55;;
23472;SDS011;11909;52.516;13.564;2022-12-07T05:36:14;27.48;;;15.30;;
23472;SDS011;11909;52.516;13.564;2022-12-07T05:38:42;29.20;;;16.65;;
23472;SDS011;11909;52.516;13.564;2022-12-07T05:41:11;25.88;;;16.60;;
23472;SDS011;11909;52.516;13.564;2022-12-07T05:43:56;29.25;;;18.02;;
23472;SDS011;11909;52.516;13.564;2022-12-07T05:46:24;28.73;;;16.88;;
23472;SDS011;11909;52.516;13.564;2022-12-07T05:48:51;29.65;;;17.02;;
23472;SDS011;11909;52.516;13.564;2022-12-07T05:51:19;33.53;;;18.05;;
23472;SDS011;11909;52.516;13.564;2022-12-07T05:53:47;31.13;;;16.77;;
23472;SDS011;11909;52.516;13.564;2022-12-07T05:56:14;33.53;;;18.35;;
23472;SDS011;11909;52.516;13.564;2022-12-07T05:58:42;32.58;;;18.42;;
23472;SDS011;11909;52.516;13.564;2022-12-07T06:01:29;28.88;;;16.27;;
23472;SDS011;11909;52.516;13.564;2022-12-07T06:03:56;32.17;;;17.33;;
23472;SDS011;11909;52.516;13.564;2022-12-07T06:06:24;31.88;;;18.35;;
23472;SDS011;11909;52.516;13.564;2022-12-07T06:08:52;32.40;;;19.40;;
23472;SDS011;11909;52.516;13.564;2022-12-07T06:11:19;31.83;;;19.02;;
23472;SDS011;11909;52.516;13.564;2022-12-07T06:14:05;38.97;;;19.35;;
23472;SDS011;11909;52.516;13.564;2022-12-07T06:16:34;34.38;;;18.40;;
23472;SDS011;11909;52.516;13.564;2022-12-07T06:19:02;36.30;;;18.65;;
23472;SDS011;11909;52.516;13.564;2022-12-07T06:21:30;35.42;;;19.10;;
23472;SDS011;11909;52.516;13.564;2022-12-07T06:23:57;35.50;;;18.58;;
23472;SDS011;11909;52.516;13.564;2022-12-07T06:26:25;39.30;;;19.38;;
23472;SDS011;11909;52.516;13.564;2022-12-07T06:28:53;35.60;;;19.05;;
23472;SDS011;11909;52.516;13.564;2022-12-07T06:31:20;35.13;;;19.40;;
23472;SDS011;11909;52.516;13.564;2022-12-07T06:33:49;33.13;;;18.17;;
23472;SDS011;11909;52.516;13.564;2022-12-07T06:36:17;41.10;;;19.50;;
23472;SDS011;11909;52.516;13.564;2022-12-07T06:38:52;35.97;;;19.25;;
23472;SDS011;11909;52.516;13.564;2022-12-07T06:41:20;36.53;;;19.92;;
23472;SDS011;11909;52.516;13.564;2022-12-07T06:43:47;34.30;;;19.08;;
23472;SDS011;11909;52.516;13.564;2022-12-07T06:46:21;31.83;;;18.52;;
23472;SDS011;11909;52.516;13.564;2022-12-07T06:48:51;35.58;;;18.33;;
23472;SDS011;11909;52.516;13.564;2022-12-07T06:51:19;35.38;;;18.88;;
23472;SDS011;11909;52.516;13.564;2022-12-07T06:53:46;32.58;;;18.38;;
23472;SDS011;11909;52.516;13.564;2022-12-07T06:56:14;39.05;;;19.42;;
23472;SDS011;11909;52.516;13.564;2022-12-07T06:58:42;37.47;;;19.20;;
23472;SDS011;11909;52.516;13.564;2022-12-07T07:01:10;34.53;;;19.42;;
23472;SDS011;11909;52.516;13.564;2022-12-07T07:03:38;36.47;;;19.38;;
23472;SDS011;11909;52.516;13.564;2022-12-07T07:06:08;32.55;;;18.80;;
23472;SDS011;11909;52.516;13.564;2022-12-07T07:08:36;36.40;;;19.38;;
23472;SDS011;11909;52.516;13.564;2022-12-07T07:11:05;33.47;;;19.48;;
23472;SDS011;11909;52.516;13.564;2022-12-07T07:13:34;31.65;;;18.92;;
23472;SDS011;11909;52.516;13.564;2022-12-07T07:16:02;34.50;;;18.77;;
23472;SDS011;11909;52.516;13.564;2022-12-07T07:18:29;32.72;;;17.73;;
23472;SDS011;11909;52.516;13.564;2022-12-07T07:20:57;31.23;;;17.90;;
23472;SDS011;11909;52.516;13.564;2022-12-07T07:23:26;32.47;;;18.05;;
23472;SDS011;11909;52.516;13.564;2022-12-07T07:25:54;35.35;;;19.50;;
23472;SDS011;11909;52.516;13.564;2022-12-07T07:28:22;33.22;;;18.85;;
23472;SDS011;11909;52.516;13.564;2022-12-07T07:30:49;39.15;;;20.00;;
23472;SDS011;11909;52.516;13.564;2022-12-07T07:33:17;31.95;;;19.05;;
23472;SDS011;11909;52.516;13.564;2022-12-07T07:35:45;33.53;;;19.20;;
23472;SDS011;11909;52.516;13.564;2022-12-07T07:38:13;41.08;;;19.50;;
23472;SDS011;11909;52.516;13.564;2022-12-07T07:40:42;35.85;;;18.92;;
23472;SDS011;11909;52.516;13.564;2022-12-07T07:43:09;31.35;;;17.45;;
23472;SDS011;11909;52.516;13.564;2022-12-07T07:45:37;29.45;;;16.52;;
23472;SDS011;11909;52.516;13.564;2022-12-07T07:48:05;26.40;;;15.98;;
23472;SDS011;11909;52.516;13.564;2022-12-07T07:50:33;26.95;;;15.30;;
23472;SDS011;11909;52.516;13.564;2022-12-07T07:53:00;24.80;;;14.95;;
23472;SDS011;11909;52.516;13.564;2022-12-07T07:55:28;25.60;;;13.90;;
23472;SDS011;11909;52.516;13.564;2022-12-07T07:57:57;26.50;;;13.75;;
23472;SDS011;11909;52.516;13.564;2022-12-07T08:00:25;25.02;;;14.15;;
23472;SDS011;11909;52.516;13.564;2022-12-07T08:02:53;24.40;;;13.55;;
23472;SDS011;11909;52.516;13.564;2022-12-07T08:05:21;19.13;;;11.05;;
23472;SDS011;11909;52.516;13.564;2022-12-07T08:07:48;19.50;;;11.85;;
23472;SDS011;11909;52.516;13.564;2022-12-07T08:10:16;22.15;;;12.63;;
23472;SDS011;11909;52.516;13.564;2022-12-07T08:12:44;20.40;;;12.73;;
23472;SDS011;11909;52.516;13.564;2022-12-07T08:15:31;22.63;;;12.27;;
23472;SDS011;11909;52.516;13.564;2022-12-07T08:17:58;16.27;;;10.32;;
23472;SDS011;11909;52.516;13.564;2022-12-07T08:20:26;18.30;;;9.82;;
23472;SDS011;11909;52.516;13.564;2022-12-07T08:22:56;21.67;;;11.38;;
23472;SDS011;11909;52.516;13.564;2022-12-07T08:25:24;14.73;;;9.65;;
23472;SDS011;11909;52.516;13.564;2022-12-07T08:27:52;13.65;;;8.68;;
23472;SDS011;11909;52.516;13.564;2022-12-07T08:30:20;16.45;;;8.73;;
23472;SDS011;11909;52.516;13.564;2022-12-07T08:32:49;13.57;;;8.63;;
23472;SDS011;11909;52.516;13.564;2022-12-07T08:35:17;12.23;;;7.93;;
23472;SDS011;11909;52.516;13.564;2022-12-07T08:37:45;15.95;;;9.13;;
23472;SDS011;11909;52.516;13.564;2022-12-07T08:40:13;9.98;;;6.82;;
23472;SDS011;11909;52.516;13.564;2022-12-07T08:42:42;11.13;;;6.88;;
23472;SDS011;11909;52.516;13.564;2022-12-07T08:45:11;12.77;;;7.30;;
23472;SDS011;11909;52.516;13.564;2022-12-07T08:47:42;11.05;;;6.85;;
23472;SDS011;11909;52.516;13.564;2022-12-07T08:50:14;8.38;;;6.22;;
23472;SDS011;11909;52.516;13.564;2022-12-07T08:52:42;11.30;;;6.93;;
23472;SDS011;11909;52.516;13.564;2022-12-07T08:55:10;9.52;;;6.72;;
23472;SDS011;11909;52.516;13.564;2022-12-07T08:57:39;9.13;;;6.03;;
23472;SDS011;11909;52.516;13.564;2022-12-07T09:00:09;7.63;;;5.50;;
23472;SDS011;11909;52.516;13.564;2022-12-07T09:02:37;8.48;;;5.32;;
23472;SDS011;11909;52.516;13.564;2022-12-07T09:05:05;9.00;;;5.53;;
23472;SDS011;11909;52.516;13.564;2022-12-07T09:07:43;6.13;;;4.70;;
23472;SDS011;11909;52.516;13.564;2022-12-07T09:10:13;6.68;;;4.97;;
23472;SDS011;11909;52.516;13.564;2022-12-07T09:12:41;7.47;;;4.25;;
23472;SDS011;11909;52.516;13.564;2022-12-07T09:15:08;8.02;;;5.05;;
23472;SDS011;11909;52.516;13.564;2022-12-07T09:17:36;5.28;;;4.28;;
23472;SDS011;11909;52.516;13.564;2022-12-07T09:20:04;5.93;;;4.20;;
23472;SDS011;11909;52.516;13.564;2022-12-07T09:22:33;6.20;;;3.85;;
23472;SDS011;11909;52.516;13.564;2022-12-07T09:25:03;18.17;;;7.72;;
23472;SDS011;11909;52.516;13.564;2022-12-07T09:27:31;4.70;;;4.13;;
23472;SDS011;11909;52.516;13.564;2022-12-07T09:29:58;5.22;;;3.55;;
23472;SDS011;11909;52.516;13.564;2022-12-07T09:32:27;5.32;;;3.20;;
23472;SDS011;11909;52.516;13.564;2022-12-07T09:34:54;5.45;;;3.25;;
23472;SDS011;11909;52.516;13.564;2022-12-07T09:37:22;3.08;;;2.78;;
23472;SDS011;11909;52.516;13.564;2022-12-07T09:39:50;3.20;;;2.85;;
23472;SDS011;11909;52.516;13.564;2022-12-07T09:42:23;3.05;;;2.50;;
23472;SDS011;11909;52.516;13.564;2022-12-07T09:44:54;2.30;;;2.10;;
23472;SDS011;11909;52.516;13.564;2022-12-07T09:47:23;3.45;;;2.50;;
23472;SDS011;11909;52.516;13.564;2022-12-07T09:49:50;3.58;;;2.47;;
23472;SDS011;11909;52.516;13.564;2022-12-07T09:52:19;5.32;;;2.95;;
23472;SDS011;11909;52.516;13.564;2022-12-07T09:54:52;3.63;;;2.90;;
23472;SDS011;11909;52.516;13.564;2022-12-07T09:57:23;4.07;;;2.80;;
23472;SDS011;11909;52.516;13.564;2022-12-07T09:59:55;45.58;;;18.38;;
23472;SDS011;11909;52.516;13.564;2022-12-07T10:02:26;6.07;;;3.05;;
23472;SDS011;11909;52.516;13.564;2022-12-07T10:05:03;4.63;;;2.97;;
23472;SDS011;11909;52.516;13.564;2022-12-07T10:07:33;4.72;;;2.50;;
23472;SDS011;11909;52.516;13.564;2022-12-07T10:10:02;3.50;;;2.40;;
23472;SDS011;11909;52.516;13.564;2022-12-07T10:12:33;3.10;;;2.80;;
23472;SDS011;11909;52.516;13.564;2022-12-07T10:15:20;2.97;;;2.40;;
23472;SDS011;11909;52.516;13.564;2022-12-07T10:17:48;4.40;;;2.83;;
23472;SDS011;11909;52.516;13.564;2022-12-07T10:20:19;5.32;;;3.30;;
23472;SDS011;11909;52.516;13.564;2022-12-07T10:22:54;5.07;;;2.88;;
23472;SDS011;11909;52.516;13.564;2022-12-07T10:25:25;42.33;;;17.65;;
23472;SDS011;11909;52.516;13.564;2022-12-07T10:27:59;3.20;;;2.25;;
23472;SDS011;11909;52.516;13.564;2022-12-07T10:30:29;36.38;;;17.63;;
23472;SDS011;11909;52.516;13.564;2022-12-07T10:32:58;3.67;;;2.57;;
23472;SDS011;11909;52.516;13.564;2022-12-07T10:35:27;3.88;;;2.72;;
23472;SDS011;11909;52.516;13.564;2022-12-07T10:37:57;5.63;;;2.80;;
23472;SDS011;11909;52.516;13.564;2022-12-07T10:40:31;3.03;;;2.60;;
23472;SDS011;11909;52.516;13.564;2022-12-07T10:43:02;4.07;;;2.40;;
23472;SDS011;11909;52.516;13.564;2022-12-07T10:45:32;3.83;;;2.50;;
23472;SDS011;11909;52.516;13.564;2022-12-07T10:48:22;4.90;;;2.30;;
23472;SDS011;11909;52.516;13.564;2022-12-07T10:51:01;4.07;;;2.45;;
23472;SDS011;11909;52.516;13.564;2022-12-07T10:53:39;3.25;;;2.95;;
23472;SDS011;11909;52.516;13.564;2022-12-07T10:56:28;4.32;;;2.50;;
23472;SDS011;11909;52.516;13.564;2022-12-07T10:59:23;4.40;;;2.20;;
23472;SDS011;11909;52.516;13.564;2022-12-07T11:02:09;5.82;;;3.05;;
23472;SDS011;11909;52.516;13.564;2022-12-07T11:04:54;2.95;;;2.35;;
23472;SDS011;11909;52.516;13.564;2022-12-07T11:07:41;5.35;;;2.95;;
23472;SDS011;11909;52.516;13.564;2022-12-07T11:10:22;4.75;;;2.95;;
23472;SDS011;11909;52.516;13.564;2022-12-07T11:12:59;10.82;;;6.07;;
23472;SDS011;11909;52.516;13.564;2022-12-07T11:15:59;4.60;;;3.00;;
23472;SDS011;11909;52.516;13.564;2022-12-07T11:21:09;7.97;;;3.53;;
23472;SDS011;11909;52.516;13.564;2022-12-07T11:23:46;6.20;;;3.20;;
23472;SDS011;11909;52.516;13.564;2022-12-07T11:26:23;6.65;;;3.72;;
23472;SDS011;11909;52.516;13.564;2022-12-07T11:29:15;3.63;;;3.25;;
23472;SDS011;11909;52.516;13.564;2022-12-07T11:31:57;3.55;;;3.20;;
23472;SDS011;11909;52.516;13.564;2022-12-07T11:34:36;5.00;;;3.28;;
23472;SDS011;11909;52.516;13.564;2022-12-07T11:37:12;5.80;;;3.28;;
23472;SDS011;11909;52.516;13.564;2022-12-07T11:39:44;6.15;;;3.83;;
23472;SDS011;11909;52.516;13.564;2022-12-07T11:42:18;5.85;;;3.20;;
23472;SDS011;11909;52.516;13.564;2022-12-07T11:44:50;6.60;;;3.50;;
23472;SDS011;11909;52.516;13.564;2022-12-07T11:47:25;7.95;;;3.70;;
23472;SDS011;11909;52.516;13.564;2022-12-07T11:50:01;5.05;;;3.33;;
23472;SDS011;11909;52.516;13.564;2022-12-07T11:52:40;6.78;;;3.30;;
23472;SDS011;11909;52.516;13.564;2022-12-07T11:55:16;9.13;;;4.00;;
23472;SDS011;11909;52.516;13.564;2022-12-07T11:57:50;5.45;;;3.67;;
23472;SDS011;11909;52.516;13.564;2022-12-07T12:00:24;6.53;;;3.85;;
23472;SDS011;11909;52.516;13.564;2022-12-07T12:02:53;5.13;;;3.97;;
23472;SDS011;11909;52.516;13.564;2022-12-07T12:05:27;6.22;;;3.72;;
23472;SDS011;11909;52.516;13.564;2022-12-07T12:07:59;7.32;;;4.22;;
23472;SDS011;11909;52.516;13.564;2022-12-07T12:11:00;12.23;;;3.92;;
23472;SDS011;11909;52.516;13.564;2022-12-07T12:16:56;12.13;;;4.60;;
23472;SDS011;11909;52.516;13.564;2022-12-07T12:19:40;6.68;;;3.97;;
23472;SDS011;11909;52.516;13.564;2022-12-07T12:22:11;103.47;;;51.30;;
23472;SDS011;11909;52.516;13.564;2022-12-07T12:24:42;7.22;;;3.83;;
23472;SDS011;11909;52.516;13.564;2022-12-07T12:27:16;7.38;;;4.13;;
23472;SDS011;11909;52.516;13.564;2022-12-07T12:29:51;7.07;;;3.78;;
23472;SDS011;11909;52.516;13.564;2022-12-07T12:32:23;5.10;;;3.65;;
23472;SDS011;11909;52.516;13.564;2022-12-07T12:35:17;11.55;;;4.30;;
23472;SDS011;11909;52.516;13.564;2022-12-07T12:37:49;8.43;;;3.40;;
23472;SDS011;11909;52.516;13.564;2022-12-07T12:40:40;7.90;;;3.60;;
23472;SDS011;11909;52.516;13.564;2022-12-07T12:58:27;10.50;;;3.03;;
23472;SDS011;11909;52.516;13.564;2022-12-07T13:04:28;6.65;;;3.22;;
23472;SDS011;11909;52.516;13.564;2022-12-07T13:07:10;4.93;;;2.75;;
23472;SDS011;11909;52.516;13.564;2022-12-07T13:09:42;11.82;;;3.20;;
23472;SDS011;11909;52.516;13.564;2022-12-07T13:12:12;5.60;;;2.83;;
23472;SDS011;11909;52.516;13.564;2022-12-07T13:14:53;10.95;;;3.03;;
23472;SDS011;11909;52.516;13.564;2022-12-07T13:20:48;8.07;;;2.95;;
23472;SDS011;11909;52.516;13.564;2022-12-07T13:23:18;10.40;;;2.95;;
23472;SDS011;11909;52.516;13.564;2022-12-07T13:28:43;7.28;;;2.47;;
23472;SDS011;11909;52.516;13.564;2022-12-07T13:31:16;8.85;;;2.80;;
23472;SDS011;11909;52.516;13.564;2022-12-07T13:33:50;8.32;;;3.10;;
23472;SDS011;11909;52.516;13.564;2022-12-07T13:36:19;7.82;;;2.85;;
23472;SDS011;11909;52.516;13.564;2022-12-07T13:38:51;8.35;;;2.75;;
23472;SDS011;11909;52.516;13.564;2022-12-07T13:41:21;4.68;;;2.95;;
23472;SDS011;11909;52.516;13.564;2022-12-07T13:43:51;7.78;;;2.92;;
23472;SDS011;11909;52.516;13.564;2022-12-07T13:46:24;10.23;;;2.97;;
23472;SDS011;11909;52.516;13.564;2022-12-07T13:48:55;8.45;;;2.72;;
23472;SDS011;11909;52.516;13.564;2022-12-07T13:51:23;11.52;;;3.05;;
23472;SDS011;11909;52.516;13.564;2022-12-07T13:53:53;6.60;;;2.30;;
23472;SDS011;11909;52.516;13.564;2022-12-07T13:56:25;7.53;;;2.70;;
23472;SDS011;11909;52.516;13.564;2022-12-07T13:58:58;9.95;;;2.35;;
23472;SDS011;11909;52.516;13.564;2022-12-07T14:01:28;10.32;;;2.53;;
23472;SDS011;11909;52.516;13.564;2022-12-07T14:06:48;8.68;;;2.10;;
23472;SDS011;11909;52.516;13.564;2022-12-07T14:09:18;7.88;;;2.63;;
23472;SDS011;11909;52.516;13.564;2022-12-07T14:11:48;7.47;;;2.40;;
23472;SDS011;11909;52.516;13.564;2022-12-07T14:14:18;5.57;;;2.30;;
23472;SDS011;11909;52.516;13.564;2022-12-07T14:16:58;7.57;;;2.22;;
23472;SDS011;11909;52.516;13.564;2022-12-07T14:19:47;12.00;;;2.00;;
23472;SDS011;11909;52.516;13.564;2022-12-07T14:22:19;6.68;;;2.28;;
23472;SDS011;11909;52.516;13.564;2022-12-07T14:24:49;8.48;;;2.78;;
23472;SDS011;11909;52.516;13.564;2022-12-07T14:27:18;6.32;;;2.80;;
23472;SDS011;11909;52.516;13.564;2022-12-07T14:29:47;8.20;;;2.45;;
23472;SDS011;11909;52.516;13.564;2022-12-07T14:32:20;6.00;;;2.67;;
23472;SDS011;11909;52.516;13.564;2022-12-07T14:34:58;7.22;;;2.60;;
23472;SDS011;11909;52.516;13.564;2022-12-07T14:37:28;6.97;;;2.30;;
23472;SDS011;11909;52.516;13.564;2022-12-07T14:39:57;5.82;;;2.50;;
23472;SDS011;11909;52.516;13.564;2022-12-07T14:42:26;8.45;;;3.08;;
23472;SDS011;11909;52.516;13.564;2022-12-07T14:47:25;11.35;;;2.60;;
23472;SDS011;11909;52.516;13.564;2022-12-07T14:50:14;11.25;;;2.45;;
23472;SDS011;11909;52.516;13.564;2022-12-07T14:52:44;6.25;;;2.20;;
23472;SDS011;11909;52.516;13.564;2022-12-07T14:55:35;6.22;;;2.70;;
23472;SDS011;11909;52.516;13.564;2022-12-07T14:58:03;7.38;;;2.92;;
23472;SDS011;11909;52.516;13.564;2022-12-07T15:00:30;4.30;;;2.35;;
23472;SDS011;11909;52.516;13.564;2022-12-07T15:03:00;13.85;;;2.50;;
23472;SDS011;11909;52.516;13.564;2022-12-07T15:05:28;8.88;;;2.90;;
23472;SDS011;11909;52.516;13.564;2022-12-07T15:07:55;9.80;;;3.10;;
23472;SDS011;11909;52.516;13.564;2022-12-07T15:10:24;8.88;;;2.55;;
23472;SDS011;11909;52.516;13.564;2022-12-07T15:12:55;8.38;;;2.53;;
23472;SDS011;11909;52.516;13.564;2022-12-07T15:15:43;16.02;;;2.65;;
23472;SDS011;11909;52.516;13.564;2022-12-07T15:18:12;8.70;;;2.70;;
23472;SDS011;11909;52.516;13.564;2022-12-07T15:20:40;6.15;;;2.50;;
23472;SDS011;11909;52.516;13.564;2022-12-07T15:23:08;8.52;;;3.50;;
23472;SDS011;11909;52.516;13.564;2022-12-07T15:25:37;7.35;;;2.72;;
23472;SDS011;11909;52.516;13.564;2022-12-07T15:30:36;4.38;;;2.22;;
23472;SDS011;11909;52.516;13.564;2022-12-07T15:33:04;3.92;;;2.05;;